sensor_id;sensor_type;location;lat;lon;timestamp;pressure;altitude;pressure_sealevel;temperature;humidity
17260;BME280;8746;49.230;9.220;2022-12-07T00:01:15;100107.78;;;2.58;100.00
17260;BME280;8746;49.230;9.220;2022-12-07T00:03:43;100106.94;;;2.61;100.00
17260;BME280;8746;49.230;9.220;2022-12-07T00:06:10;100111.28;;;2.57;100.00
17260;BME280;8746;49.230;9.220;2022-12-07T00:08:36;100106.94;;;2.54;100.00
17260;BME280;8746;49.230;9.220;2022-12-07T00:11:09;100097.41;;;2.52;100.00
17260;BME280;8746;49.230;9.220;2022-12-07T00:13:36;100099.19;;;2.44;100.00
17260;BME280;8746;49.230;9.220;2022-12-07T00:16:13;100100.94;;;2.42;100.00
17260;BME280;8746;49.230;9.220;2022-12-07T00:18:39;100089.63;;;2.39;100.00
17260;BME280;8746;49.230;9.220;2022-12-07T00:21:08;100093.13;;;2.38;100.00
17260;BME280;8746;49.230;9.220;2022-12-07T00:23:34;100097.47;;;2.41;100.00
17260;BME280;8746;49.230;9.220;2022-12-07T00:26:11;100101.81;;;2.36;100.00
17260;BME280;8746;49.230;9.220;2022-12-07T00:28:37;100096.63;;;2.30;100.00
17260;BME280;8746;49.230;9.220;2022-12-07T00:31:08;100093.13;;;2.32;100.00
17260;BME280;8746;49.230;9.220;2022-12-07T00:33:34;100094.03;;;2.28;100.00
17260;BME280;8746;49.230;9.220;2022-12-07T00:36:00;100087.97;;;2.29;100.00
17260;BME280;8746;49.230;9.220;2022-12-07T00:38:28;100094.03;;;2.25;100.00
17260;BME280;8746;49.230;9.220;2022-12-07T00:40:59;100095.81;;;2.15;100.00
17260;BME280;8746;49.230;9.220;2022-12-07T00:43:25;100098.44;;;2.17;100.00
17260;BME280;8746;49.230;9.220;2022-12-07T00:45:52;100100.13;;;2.22;100.00
17260;BME280;8746;49.230;9.220;2022-12-07T00:48:17;100099.28;;;2.22;100.00
17260;BME280;8746;49.230;9.220;2022-12-07T00:50:42;100094.91;;;2.26;100.00
17260;BME280;8746;49.230;9.220;2022-12-07T00:53:08;100092.34;;;2.18;100.00
17260;BME280;8746;49.230;9.220;2022-12-07T00:55:34;100088.03;;;2.12;100.00
17260;BME280;8746;49.230;9.220;2022-12-07T00:58:00;100088.91;;;2.05;100.00
17260;BME280;8746;49.230;9.220;2022-12-07T01:00:25;100091.53;;;1.96;100.00
17260;BME280;8746;49.230;9.220;2022-12-07T01:02:51;100097.63;;;1.87;100.00
17260;BME280;8746;49.230;9.220;2022-12-07T01:05:17;100097.66;;;1.68;100.00
17260;BME280;8746;49.230;9.220;2022-12-07T01:07:42;100090.75;;;1.64;100.00
17260;BME280;8746;49.230;9.220;2022-12-07T01:10:08;100082.06;;;1.65;100.00
17260;BME280;8746;49.230;9.220;2022-12-07T01:12:33;100090.75;;;1.64;100.00
17260;BME280;8746;49.230;9.220;2022-12-07T01:14:59;100099.41;;;1.69;100.00
17260;BME280;8746;49.230;9.220;2022-12-07T01:17:24;100101.13;;;1.70;100.00
17260;BME280;8746;49.230;9.220;2022-12-07T01:19:49;100086.34;;;1.89;100.00
17260;BME280;8746;49.230;9.220;2022-12-07T01:22:15;100091.56;;;1.88;100.00
17260;BME280;8746;49.230;9.220;2022-12-07T01:24:40;100097.66;;;1.71;100.00
17260;BME280;8746;49.230;9.220;2022-12-07T01:27:05;100101.97;;;1.72;100.00
17260;BME280;8746;49.230;9.220;2022-12-07T01:29:31;100099.38;;;1.80;100.00
17260;BME280;8746;49.230;9.220;2022-12-07T01:31:56;100096.75;;;1.79;100.00
17260;BME280;8746;49.230;9.220;2022-12-07T01:34:21;100107.19;;;1.85;100.00
17260;BME280;8746;49.230;9.220;2022-12-07T01:36:47;100106.28;;;1.86;100.00
17260;BME280;8746;49.230;9.220;2022-12-07T01:39:12;100100.25;;;1.78;100.00
17260;BME280;8746;49.230;9.220;2022-12-07T01:41:40;100101.97;;;1.82;100.00
17260;BME280;8746;49.230;9.220;2022-12-07T01:46:50;100103.66;;;1.97;100.00
17260;BME280;8746;49.230;9.220;2022-12-07T01:51:48;100113.19;;;1.99;100.00
17260;BME280;8746;49.230;9.220;2022-12-07T01:54:15;100108.03;;;1.90;100.00
17260;BME280;8746;49.230;9.220;2022-12-07T01:56:50;100096.75;;;1.79;100.00
17260;BME280;8746;49.230;9.220;2022-12-07T01:59:18;100082.00;;;1.93;100.00
17260;BME280;8746;49.230;9.220;2022-12-07T02:01:45;100077.69;;;1.89;100.00
17260;BME280;8746;49.230;9.220;2022-12-07T02:04:11;100079.44;;;1.74;100.00
17260;BME280;8746;49.230;9.220;2022-12-07T02:06:37;100077.72;;;1.69;100.00
17260;BME280;8746;49.230;9.220;2022-12-07T02:09:03;100080.31;;;1.70;100.00
17260;BME280;8746;49.230;9.220;2022-12-07T02:11:29;100088.13;;;1.72;100.00
17260;BME280;8746;49.230;9.220;2022-12-07T02:13:55;100086.34;;;1.83;100.00
17260;BME280;8746;49.230;9.220;2022-12-07T02:28:12;100087.22;;;1.96;100.00
17260;BME280;8746;49.230;9.220;2022-12-07T02:30:45;100078.53;;;1.97;100.00
17260;BME280;8746;49.230;9.220;2022-12-07T02:33:26;100073.28;;;2.02;100.00
17260;BME280;8746;49.230;9.220;2022-12-07T02:36:32;100081.09;;;2.08;100.00
17260;BME280;8746;49.230;9.220;2022-12-07T02:39:14;100079.34;;;2.13;100.00
17260;BME280;8746;49.230;9.220;2022-12-07T02:41:48;100078.47;;;2.16;100.00
17260;BME280;8746;49.230;9.220;2022-12-07T02:44:20;100073.28;;;2.06;100.00
17260;BME280;8746;49.230;9.220;2022-12-07T02:46:52;100068.06;;;2.06;100.00
17260;BME280;8746;49.230;9.220;2022-12-07T02:49:19;100046.25;;;2.40;100.00
17260;BME280;8746;49.230;9.220;2022-12-07T02:51:48;100029.69;;;2.50;100.00
17260;BME280;8746;49.230;9.220;2022-12-07T02:54:17;100033.22;;;2.38;100.00
17260;BME280;8746;49.230;9.220;2022-12-07T03:04:57;100027.16;;;2.43;100.00
17260;BME280;8746;49.230;9.220;2022-12-07T03:07:35;100016.81;;;2.27;100.00
17260;BME280;8746;49.230;9.220;2022-12-07T03:12:45;100021.97;;;2.36;100.00
17260;BME280;8746;49.230;9.220;2022-12-07T03:15:20;100031.56;;;2.28;100.00
17260;BME280;8746;49.230;9.220;2022-12-07T03:17:49;100027.16;;;2.43;100.00
17260;BME280;8746;49.230;9.220;2022-12-07T03:20:19;100039.31;;;2.44;100.00
17260;BME280;8746;49.230;9.220;2022-12-07T03:22:46;100041.03;;;2.46;100.00
17260;BME280;8746;49.230;9.220;2022-12-07T03:25:15;100044.47;;;2.47;100.00
17260;BME280;8746;49.230;9.220;2022-12-07T03:27:50;100053.16;;;2.49;100.00
17260;BME280;8746;49.230;9.220;2022-12-07T03:30:23;100044.50;;;2.40;100.00
17260;BME280;8746;49.230;9.220;2022-12-07T03:35:23;100039.25;;;2.48;100.00
17260;BME280;8746;49.230;9.220;2022-12-07T03:38:00;100028.06;;;2.35;100.00
17260;BME280;8746;49.230;9.220;2022-12-07T03:40:37;100026.25;;;2.42;100.00
17260;BME280;8746;49.230;9.220;2022-12-07T03:43:04;100034.06;;;2.42;100.00
17260;BME280;8746;49.230;9.220;2022-12-07T03:45:42;100039.22;;;2.54;100.00
17260;BME280;8746;49.230;9.220;2022-12-07T03:48:17;100055.69;;;2.58;100.00
17260;BME280;8746;49.230;9.220;2022-12-07T03:50:52;100046.13;;;2.62;100.00
17260;BME280;8746;49.230;9.220;2022-12-07T03:53:24;100050.44;;;2.67;100.00
17260;BME280;8746;49.230;9.220;2022-12-07T03:55:55;100045.25;;;2.64;100.00
17260;BME280;8746;49.230;9.220;2022-12-07T03:58:23;100049.66;;;2.56;100.00
17260;BME280;8746;49.230;9.220;2022-12-07T04:00:50;100036.63;;;2.56;100.00
17260;BME280;8746;49.230;9.220;2022-12-07T04:03:15;100033.16;;;2.57;100.00
17260;BME280;8746;49.230;9.220;2022-12-07T04:05:42;100034.03;;;2.51;100.00
17260;BME280;8746;49.230;9.220;2022-12-07T04:08:07;100044.47;;;2.51;100.00
17260;BME280;8746;49.230;9.220;2022-12-07T04:10:33;100048.78;;;2.54;100.00
17260;BME280;8746;49.230;9.220;2022-12-07T04:12:58;100053.97;;;2.57;100.00
17260;BME280;8746;49.230;9.220;2022-12-07T04:15:24;100041.78;;;2.59;100.00
17260;BME280;8746;49.230;9.220;2022-12-07T04:17:49;100040.91;;;2.65;100.00
17260;BME280;8746;49.230;9.220;2022-12-07T04:20:15;100040.06;;;2.60;100.00
17260;BME280;8746;49.230;9.220;2022-12-07T04:22:40;100039.22;;;2.61;100.00
17260;BME280;8746;49.230;9.220;2022-12-07T04:25:06;100033.09;;;2.63;100.00
17260;BME280;8746;49.230;9.220;2022-12-07T04:27:32;100039.13;;;2.73;100.00
17260;BME280;8746;49.230;9.220;2022-12-07T04:29:57;100025.34;;;2.52;100.00
17260;BME280;8746;49.230;9.220;2022-12-07T04:32:23;100032.25;;;2.60;100.00
17260;BME280;8746;49.230;9.220;2022-12-07T04:34:49;100032.25;;;2.60;100.00
17260;BME280;8746;49.230;9.220;2022-12-07T04:37:14;100018.34;;;2.64;100.00
17260;BME280;8746;49.230;9.220;2022-12-07T04:39:40;100027.03;;;2.64;100.00
17260;BME280;8746;49.230;9.220;2022-12-07T04:42:05;100015.69;;;2.70;100.00
17260;BME280;8746;49.230;9.220;2022-12-07T04:44:31;100018.28;;;2.71;100.00
17260;BME280;8746;49.230;9.220;2022-12-07T04:46:56;100020.97;;;2.59;100.00
17260;BME280;8746;49.230;9.220;2022-12-07T04:49:23;100020.13;;;2.55;100.00
17260;BME280;8746;49.230;9.220;2022-12-07T04:51:48;100026.19;;;2.61;100.00
17260;BME280;8746;49.230;9.220;2022-12-07T04:54:15;100028.78;;;2.61;100.00
17260;BME280;8746;49.230;9.220;2022-12-07T04:56:41;100026.19;;;2.61;100.00
17260;BME280;8746;49.230;9.220;2022-12-07T04:59:07;100025.28;;;2.63;100.00
17260;BME280;8746;49.230;9.220;2022-12-07T05:01:33;100012.19;;;2.72;100.00
17260;BME280;8746;49.230;9.220;2022-12-07T05:03:59;100022.59;;;2.72;100.00
17260;BME280;8746;49.230;9.220;2022-12-07T05:06:24;100022.66;;;2.69;100.00
17260;BME280;8746;49.230;9.220;2022-12-07T05:08:49;100018.31;;;2.67;100.00
17260;BME280;8746;49.230;9.220;2022-12-07T05:11:15;100028.78;;;2.62;100.00
17260;BME280;8746;49.230;9.220;2022-12-07T05:13:58;100026.09;;;2.73;100.00
17260;BME280;8746;49.230;9.220;2022-12-07T05:16:24;100027.91;;;2.63;100.00
17260;BME280;8746;49.230;9.220;2022-12-07T05:18:49;100024.41;;;2.63;100.00
17260;BME280;8746;49.230;9.220;2022-12-07T05:21:15;100017.47;;;2.63;100.00
17260;BME280;8746;49.230;9.220;2022-12-07T05:23:40;100020.97;;;2.59;100.00
17260;BME280;8746;49.230;9.220;2022-12-07T05:26:05;100022.78;;;2.51;100.00
17260;BME280;8746;49.230;9.220;2022-12-07T05:28:31;100013.22;;;2.48;100.00
17260;BME280;8746;49.230;9.220;2022-12-07T05:30:56;100014.06;;;2.52;100.00
17260;BME280;8746;49.230;9.220;2022-12-07T05:33:22;100015.72;;;2.64;100.00
17260;BME280;8746;49.230;9.220;2022-12-07T05:35:47;100022.66;;;2.66;100.00
17260;BME280;8746;49.230;9.220;2022-12-07T05:38:12;100013.16;;;2.54;100.00
17260;BME280;8746;49.230;9.220;2022-12-07T05:40:37;100006.25;;;2.52;100.00
17260;BME280;8746;49.230;9.220;2022-12-07T05:43:03;100012.31;;;2.54;100.00
17260;BME280;8746;49.230;9.220;2022-12-07T05:45:28;100005.41;;;2.47;100.00
17260;BME280;8746;49.230;9.220;2022-12-07T05:47:54;100014.06;;;2.52;100.00
17260;BME280;8746;49.230;9.220;2022-12-07T05:50:19;100007.16;;;2.45;100.00
17260;BME280;8746;49.230;9.220;2022-12-07T05:52:44;100008.91;;;2.43;100.00
17260;BME280;8746;49.230;9.220;2022-12-07T05:55:10;100005.44;;;2.40;100.00
17260;BME280;8746;49.230;9.220;2022-12-07T05:57:35;100011.53;;;2.41;100.00
17260;BME280;8746;49.230;9.220;2022-12-07T06:00:01;100015.00;;;2.42;100.00
17260;BME280;8746;49.230;9.220;2022-12-07T06:02:27;100020.16;;;2.51;100.00
17260;BME280;8746;49.230;9.220;2022-12-07T06:04:52;100014.09;;;2.49;100.00
17260;BME280;8746;49.230;9.220;2022-12-07T06:07:18;100005.44;;;2.45;100.00
17260;BME280;8746;49.230;9.220;2022-12-07T06:09:43;100016.75;;;2.41;100.00
17260;BME280;8746;49.230;9.220;2022-12-07T06:12:10;100014.09;;;2.46;100.00
17260;BME280;8746;49.230;9.220;2022-12-07T06:14:54;100014.06;;;2.52;100.00
17260;BME280;8746;49.230;9.220;2022-12-07T06:17:20;100016.72;;;2.44;100.00
17260;BME280;8746;49.230;9.220;2022-12-07T06:19:45;100014.16;;;2.41;100.00
17260;BME280;8746;49.230;9.220;2022-12-07T06:22:11;100020.16;;;2.52;100.00
17260;BME280;8746;49.230;9.220;2022-12-07T06:24:37;100021.78;;;2.67;100.00
17260;BME280;8746;49.230;9.220;2022-12-07T06:27:03;100029.63;;;2.64;100.00
17260;BME280;8746;49.230;9.220;2022-12-07T06:29:29;100032.25;;;2.56;100.00
17260;BME280;8746;49.230;9.220;2022-12-07T06:31:54;100032.28;;;2.52;100.00
17260;BME280;8746;49.230;9.220;2022-12-07T06:34:21;100031.50;;;2.44;100.00
17260;BME280;8746;49.230;9.220;2022-12-07T06:36:48;100028.84;;;2.47;100.00
17260;BME280;8746;49.230;9.220;2022-12-07T06:39:17;100026.25;;;2.47;100.00
17260;BME280;8746;49.230;9.220;2022-12-07T06:41:43;100030.50;;;2.60;100.00
17260;BME280;8746;49.230;9.220;2022-12-07T06:44:09;100033.13;;;2.55;100.00
17260;BME280;8746;49.230;9.220;2022-12-07T06:46:34;100039.22;;;2.56;100.00
17260;BME280;8746;49.230;9.220;2022-12-07T06:49:04;100033.19;;;2.51;100.00
17260;BME280;8746;49.230;9.220;2022-12-07T06:51:30;100031.44;;;2.51;100.00
17260;BME280;8746;49.230;9.220;2022-12-07T06:53:56;100028.78;;;2.61;100.00
17260;BME280;8746;49.230;9.220;2022-12-07T06:56:21;100035.75;;;2.55;100.00
17260;BME280;8746;49.230;9.220;2022-12-07T06:58:48;100025.28;;;2.65;100.00
17260;BME280;8746;49.230;9.220;2022-12-07T07:01:15;100030.47;;;2.65;100.00
17260;BME280;8746;49.230;9.220;2022-12-07T07:03:41;100034.84;;;2.61;100.00
17260;BME280;8746;49.230;9.220;2022-12-07T07:06:07;100041.84;;;2.56;100.00
17260;BME280;8746;49.230;9.220;2022-12-07T07:08:34;100035.78;;;2.51;100.00
17260;BME280;8746;49.230;9.220;2022-12-07T07:10:59;100035.75;;;2.55;100.00
17260;BME280;8746;49.230;9.220;2022-12-07T07:13:25;100037.38;;;2.73;100.00
17260;BME280;8746;49.230;9.220;2022-12-07T07:15:51;100033.09;;;2.65;100.00
17260;BME280;8746;49.230;9.220;2022-12-07T07:18:16;100047.03;;;2.58;100.00
17260;BME280;8746;49.230;9.220;2022-12-07T07:20:41;100041.84;;;2.53;100.00
17260;BME280;8746;49.230;9.220;2022-12-07T07:23:07;100038.34;;;2.57;100.00
17260;BME280;8746;49.230;9.220;2022-12-07T07:25:33;100041.78;;;2.62;100.00
17260;BME280;8746;49.230;9.220;2022-12-07T07:27:59;100036.56;;;2.64;100.00
17260;BME280;8746;49.230;9.220;2022-12-07T07:30:25;100046.97;;;2.67;100.00
17260;BME280;8746;49.230;9.220;2022-12-07T07:32:50;100048.69;;;2.66;100.00
17260;BME280;8746;49.230;9.220;2022-12-07T07:35:16;100045.25;;;2.61;99.81
17260;BME280;8746;49.230;9.220;2022-12-07T07:37:41;100049.56;;;2.65;99.62
17260;BME280;8746;49.230;9.220;2022-12-07T07:40:08;100050.38;;;2.78;99.87
17260;BME280;8746;49.230;9.220;2022-12-07T07:42:33;100043.31;;;2.94;99.69
17260;BME280;8746;49.230;9.220;2022-12-07T07:44:59;100031.19;;;2.87;99.04
17260;BME280;8746;49.230;9.220;2022-12-07T07:47:24;100048.56;;;2.85;99.15
17260;BME280;8746;49.230;9.220;2022-12-07T07:49:49;100046.94;;;2.71;100.00
17260;BME280;8746;49.230;9.220;2022-12-07T07:52:15;100044.34;;;2.70;100.00
17260;BME280;8746;49.230;9.220;2022-12-07T07:54:40;100057.38;;;2.68;100.00
17260;BME280;8746;49.230;9.220;2022-12-07T07:57:05;100061.69;;;2.76;100.00
17260;BME280;8746;49.230;9.220;2022-12-07T07:59:30;100062.56;;;2.70;100.00
17260;BME280;8746;49.230;9.220;2022-12-07T08:01:56;100062.50;;;2.78;99.69
17260;BME280;8746;49.230;9.220;2022-12-07T08:04:21;100062.56;;;2.75;99.87
17260;BME280;8746;49.230;9.220;2022-12-07T08:06:47;100064.22;;;2.88;99.60
17260;BME280;8746;49.230;9.220;2022-12-07T08:09:12;100067.75;;;2.76;99.54
17260;BME280;8746;49.230;9.220;2022-12-07T08:11:37;100065.13;;;2.78;98.95
17260;BME280;8746;49.230;9.220;2022-12-07T08:14:03;100069.47;;;2.82;99.52
17260;BME280;8746;49.230;9.220;2022-12-07T08:16:28;100066.09;;;2.61;99.13
17260;BME280;8746;49.230;9.220;2022-12-07T08:18:54;100068.63;;;2.75;99.54
17260;BME280;8746;49.230;9.220;2022-12-07T08:21:19;100073.88;;;2.72;100.00
17260;BME280;8746;49.230;9.220;2022-12-07T08:23:45;100069.47;;;2.82;99.94
17260;BME280;8746;49.230;9.220;2022-12-07T08:26:14;100070.25;;;2.88;99.68
17260;BME280;8746;49.230;9.220;2022-12-07T08:28:39;100070.25;;;2.92;99.76
17260;BME280;8746;49.230;9.220;2022-12-07T08:31:11;100066.78;;;2.93;99.66
17260;BME280;8746;49.230;9.220;2022-12-07T08:33:38;100069.41;;;2.89;99.32
17260;BME280;8746;49.230;9.220;2022-12-07T08:36:06;100072.84;;;2.96;99.72
17260;BME280;8746;49.230;9.220;2022-12-07T08:38:32;100070.19;;;3.01;99.83
17260;BME280;8746;49.230;9.220;2022-12-07T08:40:59;100071.97;;;2.94;99.48
17260;BME280;8746;49.230;9.220;2022-12-07T08:43:25;100078.09;;;2.87;98.60
17260;BME280;8746;49.230;9.220;2022-12-07T08:46:17;100075.59;;;2.70;99.72
17260;BME280;8746;49.230;9.220;2022-12-07T08:48:48;100066.84;;;2.82;99.87
17260;BME280;8746;49.230;9.220;2022-12-07T08:51:15;100067.69;;;2.90;99.70
17260;BME280;8746;49.230;9.220;2022-12-07T08:53:40;100064.16;;;2.94;99.19
17260;BME280;8746;49.230;9.220;2022-12-07T08:56:06;100064.09;;;3.05;99.62
17260;BME280;8746;49.230;9.220;2022-12-07T08:58:33;100064.84;;;3.16;99.47
17260;BME280;8746;49.230;9.220;2022-12-07T09:00:59;100066.59;;;3.17;98.74
17260;BME280;8746;49.230;9.220;2022-12-07T09:03:24;100065.66;;;3.26;98.27
17260;BME280;8746;49.230;9.220;2022-12-07T09:05:50;100065.59;;;3.32;97.73
17260;BME280;8746;49.230;9.220;2022-12-07T09:08:15;100069.06;;;3.34;97.45
17260;BME280;8746;49.230;9.220;2022-12-07T09:10:41;100064.72;;;3.36;97.99
17260;BME280;8746;49.230;9.220;2022-12-07T09:13:06;100067.25;;;3.41;96.59
17260;BME280;8746;49.230;9.220;2022-12-07T09:15:32;100074.16;;;3.47;96.56
17260;BME280;8746;49.230;9.220;2022-12-07T09:17:58;100075.84;;;3.51;95.96
17260;BME280;8746;49.230;9.220;2022-12-07T09:20:23;100066.41;;;3.37;94.47
17260;BME280;8746;49.230;9.220;2022-12-07T09:22:49;100063.72;;;3.48;95.23
17260;BME280;8746;49.230;9.220;2022-12-07T09:25:14;100065.53;;;3.39;95.00
17260;BME280;8746;49.230;9.220;2022-12-07T09:27:41;100069.72;;;3.58;95.12
17260;BME280;8746;49.230;9.220;2022-12-07T09:30:06;100063.84;;;3.34;93.51
17260;BME280;8746;49.230;9.220;2022-12-07T09:32:32;100062.78;;;3.56;94.95
17260;BME280;8746;49.230;9.220;2022-12-07T09:34:57;100067.16;;;3.55;93.80
17260;BME280;8746;49.230;9.220;2022-12-07T09:37:23;100072.41;;;3.50;92.99
17260;BME280;8746;49.230;9.220;2022-12-07T09:39:48;100062.78;;;3.56;93.33
17260;BME280;8746;49.230;9.220;2022-12-07T09:42:29;100062.75;;;3.57;93.91
17260;BME280;8746;49.230;9.220;2022-12-07T09:44:58;100055.72;;;3.68;93.75
17260;BME280;8746;49.230;9.220;2022-12-07T09:47:24;100056.47;;;3.80;93.79
17260;BME280;8746;49.230;9.220;2022-12-07T09:49:49;100063.38;;;3.82;93.13
17260;BME280;8746;49.230;9.220;2022-12-07T09:52:27;100063.59;;;3.62;92.85
17260;BME280;8746;49.230;9.220;2022-12-07T09:54:53;100061.81;;;3.67;93.82
17260;BME280;8746;49.230;9.220;2022-12-07T09:57:30;100061.19;;;3.41;93.66
17260;BME280;8746;49.230;9.220;2022-12-07T10:00:01;100057.59;;;3.51;94.47
17260;BME280;8746;49.230;9.220;2022-12-07T10:02:35;100052.28;;;3.63;94.76
17260;BME280;8746;49.230;9.220;2022-12-07T10:05:07;100049.69;;;3.63;94.70
17260;BME280;8746;49.230;9.220;2022-12-07T10:07:34;100047.91;;;3.65;95.38
17260;BME280;8746;49.230;9.220;2022-12-07T10:10:03;100055.88;;;3.51;93.88
17260;BME280;8746;49.230;9.220;2022-12-07T10:12:28;100052.44;;;3.45;94.50
17260;BME280;8746;49.230;9.220;2022-12-07T10:15:03;100044.63;;;3.46;94.52
17260;BME280;8746;49.230;9.220;2022-12-07T10:17:40;100044.69;;;3.37;95.38
17260;BME280;8746;49.230;9.220;2022-12-07T10:25:26;100037.63;;;3.50;95.52
17260;BME280;8746;49.230;9.220;2022-12-07T10:28:18;100040.94;;;3.67;94.96
17260;BME280;8746;49.230;9.220;2022-12-07T10:30:57;100037.44;;;3.68;95.03
17260;BME280;8746;49.230;9.220;2022-12-07T10:35:57;100032.09;;;3.78;94.78
17260;BME280;8746;49.230;9.220;2022-12-07T10:38:24;100029.56;;;3.73;94.43
17260;BME280;8746;49.230;9.220;2022-12-07T10:41:03;100020.78;;;3.79;95.11
17260;BME280;8746;49.230;9.220;2022-12-07T10:43:29;100027.06;;;3.64;94.57
17260;BME280;8746;49.230;9.220;2022-12-07T10:46:26;100025.31;;;3.63;94.03
17260;BME280;8746;49.230;9.220;2022-12-07T10:54:46;100020.03;;;3.69;94.20
17260;BME280;8746;49.230;9.220;2022-12-07T11:00:22;100012.91;;;3.85;93.83
17260;BME280;8746;49.230;9.220;2022-12-07T11:03:09;100004.19;;;3.86;93.70
17260;BME280;8746;49.230;9.220;2022-12-07T11:05:56;100006.88;;;3.80;92.52
17260;BME280;8746;49.230;9.220;2022-12-07T11:11:09;100004.53;;;3.55;93.70
17260;BME280;8746;49.230;9.220;2022-12-07T11:17:09;100005.34;;;3.63;94.69
17260;BME280;8746;49.230;9.220;2022-12-07T11:34:57;99985.69;;;4.06;92.14
17260;BME280;8746;49.230;9.220;2022-12-07T11:37:15;99984.22;;;3.83;92.49
17260;BME280;8746;49.230;9.220;2022-12-07T11:39:49;99979.97;;;3.75;93.51
17260;BME280;8746;49.230;9.220;2022-12-07T11:42:33;99978.06;;;3.88;93.22
17260;BME280;8746;49.230;9.220;2022-12-07T11:45:17;99985.06;;;3.84;93.01
17260;BME280;8746;49.230;9.220;2022-12-07T11:48:06;99978.94;;;3.88;92.57
17260;BME280;8746;49.230;9.220;2022-12-07T11:50:39;99977.16;;;3.90;93.07
17260;BME280;8746;49.230;9.220;2022-12-07T11:58:20;99971.00;;;3.99;92.91
17260;BME280;8746;49.230;9.220;2022-12-07T12:00:59;99964.84;;;4.00;93.11
17260;BME280;8746;49.230;9.220;2022-12-07T12:03:30;99958.13;;;3.80;93.94
17260;BME280;8746;49.230;9.220;2022-12-07T12:05:59;99957.28;;;3.80;93.52
17260;BME280;8746;49.230;9.220;2022-12-07T12:08:32;99952.09;;;3.78;94.58
17260;BME280;8746;49.230;9.220;2022-12-07T12:13:49;99953.09;;;3.69;94.75
17260;BME280;8746;49.230;9.220;2022-12-07T12:18:57;99949.34;;;3.91;94.40
17260;BME280;8746;49.230;9.220;2022-12-07T12:21:28;99944.13;;;3.88;94.37
17260;BME280;8746;49.230;9.220;2022-12-07T12:24:04;99947.13;;;4.25;92.94
17260;BME280;8746;49.230;9.220;2022-12-07T12:26:36;99937.00;;;4.02;93.24
17260;BME280;8746;49.230;9.220;2022-12-07T12:29:05;99935.75;;;4.29;91.91
17260;BME280;8746;49.230;9.220;2022-12-07T12:31:40;99934.94;;;4.26;92.38
17260;BME280;8746;49.230;9.220;2022-12-07T12:34:32;99937.53;;;4.27;91.02
17260;BME280;8746;49.230;9.220;2022-12-07T12:36:58;99942.94;;;4.12;91.05
17260;BME280;8746;49.230;9.220;2022-12-07T12:39:24;99937.66;;;4.18;92.21
17260;BME280;8746;49.230;9.220;2022-12-07T12:41:54;99930.78;;;4.11;92.14
17260;BME280;8746;49.230;9.220;2022-12-07T12:51:45;99937.66;;;4.18;91.24
17260;BME280;8746;49.230;9.220;2022-12-07T12:54:20;99932.41;;;4.21;91.17
17260;BME280;8746;49.230;9.220;2022-12-07T12:57:27;99927.09;;;4.27;90.87
17260;BME280;8746;49.230;9.220;2022-12-07T13:05:20;99929.09;;;4.07;91.76
17260;BME280;8746;49.230;9.220;2022-12-07T13:13:02;99911.84;;;3.96;91.54
17260;BME280;8746;49.230;9.220;2022-12-07T13:20:45;99900.41;;;4.05;91.04
17260;BME280;8746;49.230;9.220;2022-12-07T13:23:12;99895.09;;;4.11;91.49
17260;BME280;8746;49.230;9.220;2022-12-07T13:25:51;99891.75;;;4.00;91.10
17260;BME280;8746;49.230;9.220;2022-12-07T13:28:20;99892.16;;;4.35;91.29
17260;BME280;8746;49.230;9.220;2022-12-07T13:30:54;99888.69;;;4.32;90.54
17260;BME280;8746;49.230;9.220;2022-12-07T13:33:24;99881.72;;;4.35;90.92
17260;BME280;8746;49.230;9.220;2022-12-07T13:35:54;99880.00;;;4.30;90.61
17260;BME280;8746;49.230;9.220;2022-12-07T13:38:27;99879.19;;;4.28;90.98
17260;BME280;8746;49.230;9.220;2022-12-07T13:41:04;99883.81;;;4.09;91.74
17260;BME280;8746;49.230;9.220;2022-12-07T13:43:29;99882.72;;;4.24;92.14
17260;BME280;8746;49.230;9.220;2022-12-07T13:45:57;99883.94;;;4.01;91.87
17260;BME280;8746;49.230;9.220;2022-12-07T13:48:43;99890.78;;;4.09;92.81
17260;BME280;8746;49.230;9.220;2022-12-07T13:51:17;99887.28;;;4.10;92.93
17260;BME280;8746;49.230;9.220;2022-12-07T13:53:47;99888.00;;;4.21;92.26
17260;BME280;8746;49.230;9.220;2022-12-07T13:56:13;99886.28;;;4.20;92.96
17260;BME280;8746;49.230;9.220;2022-12-07T13:58:40;99880.31;;;4.10;91.39
17260;BME280;8746;49.230;9.220;2022-12-07T14:01:05;99879.44;;;4.11;91.59
17260;BME280;8746;49.230;9.220;2022-12-07T14:03:33;99889.75;;;4.19;91.90
17260;BME280;8746;49.230;9.220;2022-12-07T14:06:26;99887.13;;;4.22;91.70
17260;BME280;8746;49.230;9.220;2022-12-07T14:09:29;99888.16;;;4.10;90.89
17260;BME280;8746;49.230;9.220;2022-12-07T14:11:56;99887.16;;;4.19;92.40
17260;BME280;8746;49.230;9.220;2022-12-07T14:14:26;99892.44;;;4.16;92.66
17260;BME280;8746;49.230;9.220;2022-12-07T14:17:01;99885.56;;;4.09;92.67
17260;BME280;8746;49.230;9.220;2022-12-07T14:19:48;99902.19;;;4.03;92.19
17260;BME280;8746;49.230;9.220;2022-12-07T14:22:40;99901.22;;;4.10;93.32
17260;BME280;8746;49.230;9.220;2022-12-07T14:25:20;99902.22;;;4.01;93.09
17260;BME280;8746;49.230;9.220;2022-12-07T14:28:01;99901.25;;;4.07;92.56
17260;BME280;8746;49.230;9.220;2022-12-07T14:30:29;99901.38;;;3.98;91.84
17260;BME280;8746;49.230;9.220;2022-12-07T14:33:04;99897.88;;;4.00;92.88
17260;BME280;8746;49.230;9.220;2022-12-07T14:35:30;99886.59;;;3.97;93.43
17260;BME280;8746;49.230;9.220;2022-12-07T14:37:56;99892.53;;;4.08;92.15
17260;BME280;8746;49.230;9.220;2022-12-07T14:40:24;99895.50;;;3.82;92.56
17260;BME280;8746;49.230;9.220;2022-12-07T14:42:57;99888.53;;;3.82;93.21
17260;BME280;8746;49.230;9.220;2022-12-07T14:45:24;99885.91;;;3.84;92.94
17260;BME280;8746;49.230;9.220;2022-12-07T14:47:50;99877.00;;;3.97;92.21
17260;BME280;8746;49.230;9.220;2022-12-07T14:50:18;99890.22;;;3.87;92.97
17260;BME280;8746;49.230;9.220;2022-12-07T14:52:51;99893.72;;;3.84;92.35
17260;BME280;8746;49.230;9.220;2022-12-07T14:57:51;99881.63;;;3.77;92.56
17260;BME280;8746;49.230;9.220;2022-12-07T15:00:17;99885.97;;;3.79;92.77
17260;BME280;8746;49.230;9.220;2022-12-07T15:02:46;99880.94;;;3.65;92.79